createdAt,value
2018-05-06T00:00:15.886Z,965.04
2018-05-06T00:00:56.406Z,965.05
2018-05-06T00:01:36.931Z,965.04
2018-05-06T00:02:17.463Z,965
2018-05-06T00:02:57.993Z,965.03
2018-05-06T00:03:38.518Z,965.03
2018-05-06T00:04:19.043Z,965.04
2018-05-06T00:04:59.563Z,965.02
2018-05-06T00:05:40.096Z,964.99
2018-05-06T00:06:20.615Z,965.01
2018-05-06T00:07:01.143Z,965.03
2018-05-06T00:07:41.671Z,965.03
2018-05-06T00:08:22.201Z,965.05
2018-05-06T00:09:02.732Z,965.05
2018-05-06T00:09:43.250Z,965.06
2018-05-06T00:10:23.778Z,965.07
2018-05-06T00:11:04.312Z,965.05
2018-05-06T00:11:44.839Z,965.06
2018-05-06T00:12:25.360Z,965.08
2018-05-06T00:13:05.882Z,965.06
2018-05-06T00:13:46.408Z,965.09
2018-05-06T00:14:26.938Z,965.09
2018-05-06T00:15:07.501Z,965.14
2018-05-06T00:15:47.985Z,965.12
2018-05-06T00:16:28.518Z,965.13
2018-05-06T00:17:09.052Z,965.08
2018-05-06T00:17:49.569Z,965.08
2018-05-06T00:18:30.100Z,965.13
2018-05-06T00:19:10.634Z,965.11
2018-05-06T00:19:51.177Z,965.1
2018-05-06T00:20:31.673Z,965.16
2018-05-06T00:21:12.199Z,965.15
2018-05-06T00:21:52.721Z,965.16
2018-05-06T00:22:33.247Z,965.19
2018-05-06T00:23:13.769Z,965.19
2018-05-06T00:23:54.304Z,965.15
2018-05-06T00:24:34.827Z,965.15
2018-05-06T00:25:15.353Z,965.14
2018-05-06T00:25:55.872Z,965.18
2018-05-06T00:26:36.391Z,965.14
2018-05-06T00:27:16.928Z,965.15
2018-05-06T00:27:57.443Z,965.2
2018-05-06T00:28:37.979Z,965.2
2018-05-06T00:29:18.508Z,965.15
2018-05-06T00:29:59.004Z,965.08
2018-05-06T00:30:39.537Z,965.16
2018-05-06T00:31:20.046Z,965.1
2018-05-06T00:32:00.560Z,965.13
2018-05-06T00:32:41.063Z,965.15
2018-05-06T00:33:21.585Z,965.17
2018-05-06T00:34:02.095Z,965.15
2018-05-06T00:34:42.597Z,965.16
2018-05-06T00:35:23.116Z,965.15
2018-05-06T00:36:03.631Z,965.14
2018-05-06T00:36:44.162Z,965.14
2018-05-06T00:37:24.687Z,965.19
2018-05-06T00:38:05.215Z,965.17
2018-05-06T00:38:45.734Z,965.13
2018-05-06T00:39:26.256Z,965.17
2018-05-06T00:40:06.781Z,965.15
2018-05-06T00:40:47.286Z,965.12
2018-05-06T00:41:27.801Z,965.14
2018-05-06T00:42:08.344Z,965.16
2018-05-06T00:42:48.847Z,965.16
2018-05-06T00:43:29.359Z,965.17
2018-05-06T00:44:09.884Z,965.16
2018-05-06T00:44:50.413Z,965.17
2018-05-06T00:45:30.940Z,965.19
2018-05-06T00:46:11.463Z,965.17
2018-05-06T00:46:51.991Z,965.16
2018-05-06T00:47:32.517Z,965.16
2018-05-06T00:48:13.037Z,965.14
2018-05-06T00:48:53.565Z,965.15
2018-05-06T00:49:34.113Z,965.17
2018-05-06T00:50:14.640Z,965.2
2018-05-06T00:50:55.189Z,965.19
2018-05-06T00:51:35.719Z,965.19
2018-05-06T00:52:16.246Z,965.17
2018-05-06T00:52:56.772Z,965.19
2018-05-06T00:53:37.644Z,965.22
2018-05-06T00:54:18.205Z,965.24
2018-05-06T00:54:58.729Z,965.23
2018-05-06T00:55:39.264Z,965.21
2018-05-06T00:56:19.788Z,965.2
2018-05-06T00:57:00.315Z,965.22
2018-05-06T00:57:40.852Z,965.21
2018-05-06T00:58:21.373Z,965.17
2018-05-06T00:59:01.896Z,965.23
2018-05-06T00:59:42.412Z,965.23
2018-05-06T01:00:22.933Z,965.26
2018-05-06T01:01:03.459Z,965.26
2018-05-06T01:01:43.979Z,965.23
2018-05-06T01:02:24.491Z,965.25
2018-05-06T01:03:05.020Z,965.24
2018-05-06T01:03:45.540Z,965.2
2018-05-06T01:04:26.068Z,965.28
2018-05-06T01:05:06.553Z,965.23
2018-05-06T01:05:47.061Z,965.27
2018-05-06T01:06:27.579Z,965.27
2018-05-06T01:07:08.105Z,965.26
2018-05-06T01:07:48.623Z,965.28
2018-05-06T01:08:29.149Z,965.28
2018-05-06T01:09:09.681Z,965.25
2018-05-06T01:09:50.204Z,965.26
2018-05-06T01:10:30.730Z,965.29
2018-05-06T01:11:11.249Z,965.28
2018-05-06T01:11:51.765Z,965.27
2018-05-06T01:12:32.287Z,965.3
2018-05-06T01:13:12.800Z,965.31
2018-05-06T01:13:53.323Z,965.28
2018-05-06T01:14:33.860Z,965.3
2018-05-06T01:15:14.389Z,965.31
2018-05-06T01:15:54.914Z,965.3
2018-05-06T01:16:35.441Z,965.3
2018-05-06T01:17:15.968Z,965.28
2018-05-06T01:17:56.499Z,965.27
2018-05-06T01:18:37.022Z,965.3
2018-05-06T01:19:17.540Z,965.31
2018-05-06T01:19:58.068Z,965.3
2018-05-06T01:20:38.590Z,965.28
2018-05-06T01:21:19.109Z,965.28
2018-05-06T01:21:59.628Z,965.28
2018-05-06T01:22:40.142Z,965.29
2018-05-06T01:23:20.663Z,965.29
2018-05-06T01:24:01.189Z,965.27
2018-05-06T01:24:41.714Z,965.3
2018-05-06T01:25:22.237Z,965.28
2018-05-06T01:26:02.766Z,965.26
2018-05-06T01:26:43.282Z,965.3
2018-05-06T01:27:23.800Z,965.29
2018-05-06T01:28:04.327Z,965.32
2018-05-06T01:28:44.855Z,965.34
2018-05-06T01:29:25.380Z,965.32
2018-05-06T01:30:05.916Z,965.28
2018-05-06T01:30:46.425Z,965.32
2018-05-06T01:31:26.948Z,965.33
2018-05-06T01:32:07.470Z,965.33
2018-05-06T01:32:47.990Z,965.3
2018-05-06T01:33:28.515Z,965.31
2018-05-06T01:34:09.022Z,965.33
2018-05-06T01:34:49.530Z,965.28
2018-05-06T01:35:30.052Z,965.27
2018-05-06T01:36:10.539Z,965.26
2018-05-06T01:36:51.070Z,965.28
2018-05-06T01:37:31.524Z,965.26
2018-05-06T01:38:12.043Z,965.25
2018-05-06T01:38:52.576Z,965.27
2018-05-06T01:39:33.090Z,965.29
2018-05-06T01:40:13.597Z,965.3
2018-05-06T01:40:54.156Z,965.31
2018-05-06T01:41:34.684Z,965.31
2018-05-06T01:42:15.206Z,965.31
2018-05-06T01:42:55.731Z,965.29
2018-05-06T01:43:36.256Z,965.29
2018-05-06T01:44:16.784Z,965.31
2018-05-06T01:44:57.306Z,965.36
2018-05-06T01:45:37.829Z,965.34
2018-05-06T01:46:18.346Z,965.32
2018-05-06T01:46:58.879Z,965.34
2018-05-06T01:47:39.399Z,965.35
2018-05-06T01:48:19.916Z,965.37
2018-05-06T01:49:00.442Z,965.36
2018-05-06T01:49:40.972Z,965.34
2018-05-06T01:50:21.498Z,965.37
2018-05-06T01:51:02.026Z,965.32
2018-05-06T01:51:42.556Z,965.32
2018-05-06T01:52:23.073Z,965.35
2018-05-06T01:53:03.597Z,965.3
2018-05-06T01:53:44.403Z,965.34
2018-05-06T01:54:24.925Z,965.28
2018-05-06T01:55:05.443Z,965.36
2018-05-06T01:55:45.969Z,965.34
2018-05-06T01:56:26.497Z,965.33
2018-05-06T01:57:07.005Z,965.34
2018-05-06T01:57:47.518Z,965.31
2018-05-06T01:58:28.049Z,965.3
2018-05-06T01:59:08.580Z,965.28
2018-05-06T01:59:49.105Z,965.31
2018-05-06T02:00:29.623Z,965.29
2018-05-06T02:01:10.151Z,965.25
2018-05-06T02:01:50.684Z,965.25
2018-05-06T02:02:31.195Z,965.26
2018-05-06T02:03:11.717Z,965.27
2018-05-06T02:03:52.246Z,965.26
2018-05-06T02:04:32.758Z,965.29
2018-05-06T02:05:13.284Z,965.29
2018-05-06T02:05:53.816Z,965.29
2018-05-06T02:06:34.341Z,965.31
2018-05-06T02:07:14.867Z,965.32
2018-05-06T02:07:55.389Z,965.33
2018-05-06T02:08:35.917Z,965.34
2018-05-06T02:09:16.436Z,965.28
2018-05-06T02:09:56.957Z,965.3
2018-05-06T02:10:37.485Z,965.28
2018-05-06T02:11:18.013Z,965.32
2018-05-06T02:11:58.545Z,965.33
2018-05-06T02:12:39.049Z,965.25
2018-05-06T02:13:19.572Z,965.3
2018-05-06T02:14:00.099Z,965.29
2018-05-06T02:14:40.631Z,965.25
2018-05-06T02:15:21.157Z,965.25
2018-05-06T02:16:01.680Z,965.26
2018-05-06T02:16:42.214Z,965.2
2018-05-06T02:17:22.739Z,965.21
2018-05-06T02:18:03.266Z,965.2
2018-05-06T02:18:43.784Z,965.21
2018-05-06T02:19:24.311Z,965.23
2018-05-06T02:20:04.835Z,965.28
2018-05-06T02:20:45.373Z,965.24
2018-05-06T02:21:25.879Z,965.25
2018-05-06T02:22:06.411Z,965.28
2018-05-06T02:22:46.942Z,965.25
2018-05-06T02:23:27.460Z,965.26
2018-05-06T02:24:07.980Z,965.23
2018-05-06T02:24:48.502Z,965.22
2018-05-06T02:25:29.033Z,965.24
2018-05-06T02:26:09.550Z,965.26
2018-05-06T02:26:50.075Z,965.26
2018-05-06T02:27:30.597Z,965.26
2018-05-06T02:28:11.125Z,965.24
2018-05-06T02:28:51.648Z,965.25
2018-05-06T02:29:32.177Z,965.23
2018-05-06T02:30:12.713Z,965.29
2018-05-06T02:30:53.237Z,965.25
2018-05-06T02:31:33.751Z,965.25
2018-05-06T02:32:14.271Z,965.24
2018-05-06T02:32:54.797Z,965.27
2018-05-06T02:33:35.328Z,965.28
2018-05-06T02:34:15.841Z,965.32
2018-05-06T02:34:56.375Z,965.28
2018-05-06T02:35:36.882Z,965.31
2018-05-06T02:36:17.385Z,965.27
2018-05-06T02:36:57.917Z,965.31
2018-05-06T02:37:38.442Z,965.29
2018-05-06T02:38:18.950Z,965.26
2018-05-06T02:38:59.471Z,965.27
2018-05-06T02:39:39.998Z,965.27
2018-05-06T02:40:20.517Z,965.29
2018-05-06T02:41:01.039Z,965.27
2018-05-06T02:41:41.571Z,965.24
2018-05-06T02:42:22.090Z,965.25
2018-05-06T02:43:02.615Z,965.24
2018-05-06T02:43:43.141Z,965.24
2018-05-06T02:44:23.666Z,965.23
2018-05-06T02:45:04.175Z,965.22
2018-05-06T02:45:44.697Z,965.25
2018-05-06T02:46:25.228Z,965.26
2018-05-06T02:47:05.747Z,965.25
2018-05-06T02:47:46.259Z,965.25
2018-05-06T02:48:26.788Z,965.24
2018-05-06T02:49:07.304Z,965.23
2018-05-06T02:49:47.826Z,965.21
2018-05-06T02:50:28.346Z,965.17
2018-05-06T02:51:08.883Z,965.17
2018-05-06T02:51:49.405Z,965.16
2018-05-06T02:52:29.935Z,965.21
2018-05-06T02:53:10.449Z,965.2
2018-05-06T02:53:50.974Z,965.15
2018-05-06T02:54:31.487Z,965.21
2018-05-06T02:55:12.005Z,965.19
2018-05-06T02:55:52.534Z,965.16
2018-05-06T02:56:33.055Z,965.22
2018-05-06T02:57:13.564Z,965.21
2018-05-06T02:57:54.090Z,965.17
2018-05-06T02:58:34.586Z,965.22
2018-05-06T02:59:15.104Z,965.18
2018-05-06T02:59:55.634Z,965.19
2018-05-06T03:00:36.165Z,965.18
2018-05-06T03:01:16.691Z,965.18
2018-05-06T03:01:57.215Z,965.16
2018-05-06T03:02:37.739Z,965.17
2018-05-06T03:03:18.256Z,965.2
2018-05-06T03:03:58.779Z,965.19
2018-05-06T03:04:39.296Z,965.18
2018-05-06T03:05:19.818Z,965.19
2018-05-06T03:06:00.348Z,965.23
2018-05-06T03:06:40.867Z,965.15
2018-05-06T03:07:21.397Z,965.15
2018-05-06T03:08:01.923Z,965.18
2018-05-06T03:08:42.440Z,965.28
2018-05-06T03:09:22.959Z,965.18
2018-05-06T03:10:03.489Z,965.14
2018-05-06T03:10:44.019Z,965.16
2018-05-06T03:11:24.541Z,965.16
2018-05-06T03:12:05.056Z,965.1
2018-05-06T03:12:45.583Z,965.17
2018-05-06T03:13:26.102Z,965.18
2018-05-06T03:14:06.633Z,965.14
2018-05-06T03:14:47.152Z,965.19
2018-05-06T03:15:27.679Z,965.2
2018-05-06T03:16:08.195Z,965.18
2018-05-06T03:16:48.723Z,965.18
2018-05-06T03:17:29.248Z,965.18
2018-05-06T03:18:09.770Z,965.16
2018-05-06T03:18:50.298Z,965.19
2018-05-06T03:19:30.818Z,965.17
2018-05-06T03:20:11.345Z,965.16
2018-05-06T03:20:51.875Z,965.12
2018-05-06T03:21:32.402Z,965.12
2018-05-06T03:22:12.937Z,965.16
2018-05-06T03:22:53.455Z,965.15
2018-05-06T03:23:33.983Z,965.11
2018-05-06T03:24:14.493Z,965.15
2018-05-06T03:24:55.033Z,965.16
2018-05-06T03:25:35.547Z,965.17
2018-05-06T03:26:16.068Z,965.16
2018-05-06T03:26:56.589Z,965.16
2018-05-06T03:27:37.116Z,965.13
2018-05-06T03:28:17.643Z,965.17
2018-05-06T03:28:58.168Z,965.16
2018-05-06T03:29:38.683Z,965.19
2018-05-06T03:30:19.216Z,965.2
2018-05-06T03:30:59.733Z,965.19
2018-05-06T03:31:40.252Z,965.25
2018-05-06T03:32:20.774Z,965.18
2018-05-06T03:33:01.305Z,965.19
2018-05-06T03:33:41.831Z,965.26
2018-05-06T03:34:22.358Z,965.28
2018-05-06T03:35:02.891Z,965.28
2018-05-06T03:35:43.393Z,965.28
2018-05-06T03:36:23.919Z,965.25
2018-05-06T03:37:04.414Z,965.27
2018-05-06T03:37:44.945Z,965.3
2018-05-06T03:38:25.471Z,965.3
2018-05-06T03:39:05.983Z,965.29
2018-05-06T03:39:46.511Z,965.29
2018-05-06T03:40:27.080Z,965.3
2018-05-06T03:41:07.607Z,965.3
2018-05-06T03:41:48.131Z,965.28
2018-05-06T03:42:28.648Z,965.31
2018-05-06T03:43:09.167Z,965.31
2018-05-06T03:43:49.693Z,965.24
2018-05-06T03:44:30.216Z,965.23
2018-05-06T03:45:10.738Z,965.26
2018-05-06T03:45:51.257Z,965.25
2018-05-06T03:46:31.789Z,965.28
2018-05-06T03:47:12.304Z,965.26
2018-05-06T03:47:52.832Z,965.27
2018-05-06T03:48:33.361Z,965.28
2018-05-06T03:49:13.891Z,965.27
2018-05-06T03:49:54.412Z,965.27
2018-05-06T03:50:34.935Z,965.35
2018-05-06T03:51:15.466Z,965.36
2018-05-06T03:51:55.987Z,965.32
2018-05-06T03:52:36.513Z,965.32
2018-05-06T03:53:17.037Z,965.37
2018-05-06T03:53:57.578Z,965.33
2018-05-06T03:54:38.090Z,965.37
2018-05-06T03:55:18.597Z,965.39
2018-05-06T03:55:59.122Z,965.37
2018-05-06T03:56:39.655Z,965.35
2018-05-06T03:57:20.191Z,965.38
2018-05-06T03:58:00.697Z,965.39
2018-05-06T03:58:41.218Z,965.36
2018-05-06T03:59:21.745Z,965.4
2018-05-06T04:00:02.270Z,965.39
2018-05-06T04:00:42.807Z,965.38
2018-05-06T04:01:23.328Z,965.36
2018-05-06T04:02:03.854Z,965.37
2018-05-06T04:02:44.381Z,965.36
2018-05-06T04:03:24.900Z,965.35
2018-05-06T04:04:05.419Z,965.35
2018-05-06T04:04:45.927Z,965.36
2018-05-06T04:05:26.427Z,965.35
2018-05-06T04:06:06.957Z,965.35
2018-05-06T04:06:47.477Z,965.35
2018-05-06T04:07:27.994Z,965.36
2018-05-06T04:08:08.559Z,965.35
2018-05-06T04:08:49.087Z,965.33
2018-05-06T04:09:29.622Z,965.37
2018-05-06T04:10:10.148Z,965.37
2018-05-06T04:10:50.674Z,965.36
2018-05-06T04:11:31.196Z,965.35
2018-05-06T04:12:11.718Z,965.37
2018-05-06T04:12:52.241Z,965.38
2018-05-06T04:13:32.761Z,965.38
2018-05-06T04:14:13.283Z,965.34
2018-05-06T04:14:53.812Z,965.37
2018-05-06T04:15:34.338Z,965.36
2018-05-06T04:16:14.860Z,965.38
2018-05-06T04:16:55.381Z,965.36
2018-05-06T04:17:35.911Z,965.34
2018-05-06T04:18:16.420Z,965.39
2018-05-06T04:18:56.941Z,965.41
2018-05-06T04:19:37.473Z,965.42
2018-05-06T04:20:17.997Z,965.38
2018-05-06T04:20:58.519Z,965.42
2018-05-06T04:21:39.042Z,965.43
2018-05-06T04:22:19.566Z,965.41
2018-05-06T04:23:00.094Z,965.38
2018-05-06T04:23:40.613Z,965.45
2018-05-06T04:24:21.142Z,965.43
2018-05-06T04:25:01.664Z,965.43
2018-05-06T04:25:42.185Z,965.44
2018-05-06T04:26:22.705Z,965.49
2018-05-06T04:27:03.239Z,965.47
2018-05-06T04:27:43.741Z,965.49
2018-05-06T04:28:24.254Z,965.53
2018-05-06T04:29:04.778Z,965.49
2018-05-06T04:29:45.307Z,965.48
2018-05-06T04:30:25.843Z,965.5
2018-05-06T04:31:06.376Z,965.5
2018-05-06T04:31:46.891Z,965.5
2018-05-06T04:32:27.421Z,965.52
2018-05-06T04:33:07.944Z,965.51
2018-05-06T04:33:48.468Z,965.56
2018-05-06T04:34:28.997Z,965.57
2018-05-06T04:35:09.525Z,965.57
2018-05-06T04:35:50.032Z,965.6
2018-05-06T04:36:30.555Z,965.61
2018-05-06T04:37:11.089Z,965.56
2018-05-06T04:37:51.608Z,965.6
2018-05-06T04:38:32.136Z,965.61
2018-05-06T04:39:12.663Z,965.6
2018-05-06T04:39:53.195Z,965.59
2018-05-06T04:40:33.716Z,965.58
2018-05-06T04:41:14.244Z,965.57
2018-05-06T04:41:54.756Z,965.63
2018-05-06T04:42:35.273Z,965.61
2018-05-06T04:43:15.792Z,965.61
2018-05-06T04:43:56.310Z,965.58
2018-05-06T04:44:36.834Z,965.63
2018-05-06T04:45:17.369Z,965.61
2018-05-06T04:45:57.894Z,965.66
2018-05-06T04:46:38.411Z,965.63
2018-05-06T04:47:18.938Z,965.62
2018-05-06T04:47:59.453Z,965.65
2018-05-06T04:48:39.984Z,965.65
2018-05-06T04:49:20.500Z,965.71
2018-05-06T04:50:01.021Z,965.68
2018-05-06T04:50:41.546Z,965.7
2018-05-06T04:51:22.055Z,965.66
2018-05-06T04:52:02.587Z,965.7
2018-05-06T04:52:43.100Z,965.7
2018-05-06T04:53:23.613Z,965.74
2018-05-06T04:54:04.651Z,965.74
2018-05-06T04:54:45.184Z,965.75
2018-05-06T04:55:25.711Z,965.77
2018-05-06T04:56:06.242Z,965.81
2018-05-06T04:56:46.767Z,965.75
2018-05-06T04:57:27.291Z,965.81
2018-05-06T04:58:07.805Z,965.82
2018-05-06T04:58:48.333Z,965.8
2018-05-06T04:59:28.854Z,965.85
2018-05-06T05:00:09.380Z,965.85
2018-05-06T05:00:50.088Z,965.86
2018-05-06T05:01:30.496Z,965.86
2018-05-06T05:02:11.136Z,965.88
2018-05-06T05:02:51.805Z,965.9
2018-05-06T05:03:32.764Z,965.9
2018-05-06T05:04:13.504Z,965.84
2018-05-06T05:04:54.039Z,965.86
2018-05-06T05:05:34.570Z,965.88
2018-05-06T05:06:15.097Z,965.86
2018-05-06T05:06:55.627Z,965.86
2018-05-06T05:07:36.155Z,965.88
2018-05-06T05:08:16.671Z,965.89
2018-05-06T05:08:57.203Z,965.87
2018-05-06T05:09:37.977Z,965.89
2018-05-06T05:10:18.396Z,965.94
2018-05-06T05:10:58.877Z,965.91
2018-05-06T05:11:39.403Z,965.84
2018-05-06T05:12:19.937Z,965.89
2018-05-06T05:13:00.473Z,965.89
2018-05-06T05:13:40.991Z,965.9
2018-05-06T05:14:21.512Z,965.88
2018-05-06T05:15:02.041Z,965.86
2018-05-06T05:15:42.567Z,965.92
2018-05-06T05:16:23.075Z,965.91
2018-05-06T05:17:03.600Z,965.91
2018-05-06T05:17:44.114Z,965.92
2018-05-06T05:18:24.642Z,965.89
2018-05-06T05:19:05.159Z,965.86
2018-05-06T05:19:45.694Z,965.85
2018-05-06T05:20:26.302Z,965.85
2018-05-06T05:21:06.745Z,965.87
2018-05-06T05:21:47.263Z,965.86
2018-05-06T05:22:27.795Z,965.87
2018-05-06T05:23:08.322Z,965.83
2018-05-06T05:23:48.848Z,965.91
2018-05-06T05:24:30.160Z,965.83
2018-05-06T05:25:10.316Z,965.84
2018-05-06T05:25:50.838Z,965.84
2018-05-06T05:26:31.369Z,965.82
2018-05-06T05:27:11.896Z,965.86
2018-05-06T05:27:52.423Z,965.83
2018-05-06T05:28:32.958Z,965.83
2018-05-06T05:29:13.548Z,965.85
2018-05-06T05:29:54.088Z,965.85
2018-05-06T05:30:34.841Z,965.85
2018-05-06T05:31:15.368Z,965.83
2018-05-06T05:31:55.875Z,965.85
2018-05-06T05:32:36.424Z,965.86
2018-05-06T05:33:16.971Z,965.87
2018-05-06T05:36:31.277Z,965.85
2018-05-06T05:37:11.799Z,965.85
2018-05-06T05:37:52.320Z,965.86
2018-05-06T05:38:32.847Z,965.83
2018-05-06T05:39:13.441Z,965.75
2018-05-06T05:39:53.878Z,965.74
2018-05-06T05:40:34.401Z,965.77
2018-05-06T05:41:14.930Z,965.73
2018-05-06T05:41:55.461Z,965.75
2018-05-06T05:42:35.973Z,965.77
2018-05-06T05:43:16.529Z,965.81
2018-05-06T05:43:57.044Z,965.79
2018-05-06T05:44:37.570Z,965.84
2018-05-06T05:45:18.092Z,965.78
2018-05-06T05:45:58.615Z,965.79
2018-05-06T05:46:39.143Z,965.82
2018-05-06T05:47:19.666Z,965.77
2018-05-06T05:48:00.188Z,965.84
2018-05-06T05:48:40.715Z,965.84
2018-05-06T05:49:21.241Z,965.8
2018-05-06T05:50:01.766Z,965.82
2018-05-06T05:50:42.288Z,965.85
2018-05-06T05:51:22.816Z,965.85
2018-05-06T05:52:03.346Z,965.89
2018-05-06T05:52:43.869Z,965.92
2018-05-06T05:53:24.393Z,965.97
2018-05-06T05:54:05.153Z,965.97
2018-05-06T05:54:45.675Z,965.95
2018-05-06T05:55:26.192Z,966.01
2018-05-06T05:56:06.731Z,965.99
2018-05-06T05:56:47.240Z,966.01
2018-05-06T05:57:27.756Z,966
2018-05-06T05:58:08.279Z,965.98
2018-05-06T05:58:48.775Z,966.04
2018-05-06T05:59:29.301Z,966.03
2018-05-06T06:00:09.826Z,966.05
2018-05-06T06:00:50.346Z,966.08
2018-05-06T06:01:31.642Z,966.06
2018-05-06T06:02:12.607Z,966.07
2018-05-06T06:02:53.125Z,966.12
2018-05-06T06:03:33.651Z,966.1
2018-05-06T06:04:14.165Z,966.06
2018-05-06T06:04:54.688Z,966.07
2018-05-06T06:05:35.200Z,966.1
2018-05-06T06:06:15.735Z,966.09
2018-05-06T06:06:56.277Z,966.08
2018-05-06T06:07:36.789Z,966.1
2018-05-06T06:08:17.293Z,966.05
2018-05-06T06:08:57.827Z,966.06
2018-05-06T06:09:38.369Z,966.03
2018-05-06T06:10:18.879Z,966.07
2018-05-06T06:10:59.407Z,966.09
2018-05-06T06:11:39.927Z,966.08
2018-05-06T06:12:20.454Z,966.06
2018-05-06T06:13:00.959Z,966.11
2018-05-06T06:13:41.490Z,966.09
2018-05-06T06:14:22.013Z,966.15
2018-05-06T06:15:02.536Z,966.08
2018-05-06T06:15:43.075Z,966.16
2018-05-06T06:16:23.583Z,966.12
2018-05-06T06:17:04.113Z,966.13
2018-05-06T06:17:44.629Z,966.16
2018-05-06T06:18:25.155Z,966.15
2018-05-06T06:19:05.680Z,966.13
2018-05-06T06:19:46.214Z,966.11
2018-05-06T06:20:26.750Z,966.12
2018-05-06T06:21:07.498Z,966.13
2018-05-06T06:21:48.014Z,966.12
2018-05-06T06:22:28.555Z,966.12
2018-05-06T06:23:09.082Z,966.15
2018-05-06T06:23:49.642Z,966.14
2018-05-06T06:24:30.239Z,966.13
2018-05-06T06:25:10.663Z,966.14
2018-05-06T06:25:51.157Z,966.17
2018-05-06T06:26:31.662Z,966.14
2018-05-06T06:27:12.193Z,966.16
2018-05-06T06:27:52.710Z,966.2
2018-05-06T06:28:33.243Z,966.17
2018-05-06T06:29:13.765Z,966.22
2018-05-06T06:29:54.635Z,966.17
2018-05-06T06:30:35.168Z,966.2
2018-05-06T06:31:15.689Z,966.22
2018-05-06T06:31:56.203Z,966.19
2018-05-06T06:32:36.726Z,966.2
2018-05-06T06:33:17.254Z,966.19
2018-05-06T06:33:57.851Z,966.21
2018-05-06T06:34:38.413Z,966.18
2018-05-06T06:35:18.935Z,966.16
2018-05-06T06:35:59.650Z,966.15
2018-05-06T06:36:40.009Z,966.15
2018-05-06T06:37:20.735Z,966.13
2018-05-06T06:38:01.272Z,966.15
2018-05-06T06:38:41.780Z,966.18
2018-05-06T06:39:22.314Z,966.17
2018-05-06T06:40:02.833Z,966.2
2018-05-06T06:40:43.362Z,966.19
2018-05-06T06:41:23.881Z,966.17
2018-05-06T06:42:04.416Z,966.18
2018-05-06T06:42:44.928Z,966.15
2018-05-06T06:43:25.452Z,966.16
2018-05-06T06:44:05.989Z,966.14
2018-05-06T06:44:46.502Z,966.19
2018-05-06T06:45:27.024Z,966.17
2018-05-06T06:46:07.697Z,966.17
2018-05-06T06:46:48.226Z,966.23
2018-05-06T06:47:28.752Z,966.21
2018-05-06T06:48:09.500Z,966.24
2018-05-06T06:48:49.898Z,966.24
2018-05-06T06:49:31.359Z,966.23
2018-05-06T06:50:11.875Z,966.26
2018-05-06T06:50:52.399Z,966.25
2018-05-06T06:51:32.893Z,966.21
2018-05-06T06:52:13.415Z,966.22
2018-05-06T06:52:53.953Z,966.24
2018-05-06T06:53:34.484Z,966.21
2018-05-06T06:54:15.003Z,966.22
2018-05-06T06:54:55.533Z,966.21
2018-05-06T06:55:36.064Z,966.24
2018-05-06T06:56:16.624Z,966.23
2018-05-06T06:56:57.156Z,966.27
2018-05-06T06:57:37.737Z,966.25
2018-05-06T06:58:18.272Z,966.24
2018-05-06T06:58:58.792Z,966.29
2018-05-06T06:59:39.324Z,966.25
2018-05-06T07:00:19.854Z,966.25
2018-05-06T07:01:00.538Z,966.3
2018-05-06T07:01:41.066Z,966.28
2018-05-06T07:02:21.594Z,966.26
2018-05-06T07:03:02.319Z,966.22
2018-05-06T07:03:42.742Z,966.28
2018-05-06T07:04:23.507Z,966.27
2018-05-06T07:05:04.148Z,966.27
2018-05-06T07:05:44.676Z,966.23
2018-05-06T07:06:25.196Z,966.19
2018-05-06T07:07:05.730Z,966.22
2018-05-06T07:07:46.488Z,966.22
2018-05-06T07:08:27.249Z,966.24
2018-05-06T07:09:07.881Z,966.28
2018-05-06T07:09:48.320Z,966.26
2018-05-06T07:10:28.807Z,966.23
2018-05-06T07:11:09.394Z,966.27
2018-05-06T07:11:50.196Z,966.32
2018-05-06T07:12:30.794Z,966.26
2018-05-06T07:13:11.504Z,966.29
2018-05-06T07:13:52.023Z,966.29
2018-05-06T07:14:32.552Z,966.29
2018-05-06T07:15:13.140Z,966.28
2018-05-06T07:15:53.675Z,966.31
2018-05-06T07:16:34.188Z,966.3
2018-05-06T07:17:14.723Z,966.28
2018-05-06T07:17:55.246Z,966.31
2018-05-06T07:18:35.810Z,966.24
2018-05-06T07:19:16.356Z,966.27
2018-05-06T07:19:57.096Z,966.29
2018-05-06T07:20:37.618Z,966.25
2018-05-06T07:21:18.189Z,966.3
2018-05-06T07:21:58.733Z,966.23
2018-05-06T07:22:39.264Z,966.26
2018-05-06T07:23:19.857Z,966.23
2018-05-06T07:24:00.376Z,966.25
2018-05-06T07:24:40.905Z,966.22
2018-05-06T07:25:21.439Z,966.25
2018-05-06T07:26:01.973Z,966.21
2018-05-06T07:26:43.606Z,966.23
2018-05-06T07:27:24.442Z,966.29
2018-05-06T07:28:04.974Z,966.23
2018-05-06T07:28:45.509Z,966.25
2018-05-06T07:29:26.043Z,966.3
2018-05-06T07:30:06.566Z,966.3
2018-05-06T07:30:47.425Z,966.32
2018-05-06T07:31:27.953Z,966.28
2018-05-06T07:32:08.828Z,966.34
2018-05-06T07:32:49.542Z,966.31
2018-05-06T07:33:30.183Z,966.35
2018-05-06T07:34:10.832Z,966.27
2018-05-06T07:34:51.305Z,966.3
2018-05-06T07:35:31.973Z,966.24
2018-05-06T07:36:12.536Z,966.26
2018-05-06T07:36:53.060Z,966.24
2018-05-06T07:37:33.809Z,966.21
2018-05-06T07:38:14.334Z,966.21
2018-05-06T07:38:54.866Z,966.22
2018-05-06T07:39:35.558Z,966.21
2018-05-06T07:40:16.101Z,966.21
2018-05-06T07:40:56.748Z,966.19
2018-05-06T07:41:37.357Z,966.22
2018-05-06T07:42:18.290Z,966.24
2018-05-06T07:42:59.663Z,966.21
2018-05-06T07:43:40.207Z,966.17
2018-05-06T07:44:20.745Z,966.24
2018-05-06T07:45:01.279Z,966.22
2018-05-06T07:45:41.908Z,966.25
2018-05-06T07:46:22.328Z,966.24
2018-05-06T07:47:02.875Z,966.22
2018-05-06T07:47:43.413Z,966.14
2018-05-06T07:48:23.962Z,966.19
2018-05-06T07:49:04.781Z,966.19
2018-05-06T07:49:45.297Z,966.21
2018-05-06T07:50:25.873Z,966.2
2018-05-06T07:51:06.913Z,966.23
2018-05-06T07:51:47.462Z,966.2
2018-05-06T07:52:28.055Z,966.24
2018-05-06T07:53:08.601Z,966.21
2018-05-06T07:53:49.426Z,966.2
2018-05-06T07:54:29.930Z,966.19
2018-05-06T07:55:10.910Z,966.26
2018-05-06T07:55:51.464Z,966.25
2018-05-06T07:56:32.010Z,966.31
2018-05-06T07:57:12.545Z,966.29
2018-05-06T07:57:53.079Z,966.27
2018-05-06T07:58:33.618Z,966.28
2018-05-06T07:59:14.164Z,966.28
2018-05-06T07:59:54.702Z,966.29
2018-05-06T08:00:35.247Z,966.25
2018-05-06T08:01:15.789Z,966.26
2018-05-06T08:01:56.323Z,966.28
2018-05-06T08:02:36.865Z,966.25
2018-05-06T08:03:17.413Z,966.28
2018-05-06T08:03:57.956Z,966.24
2018-05-06T08:04:38.488Z,966.22
2018-05-06T08:05:19.030Z,966.22
2018-05-06T08:05:59.567Z,966.21
2018-05-06T08:06:40.105Z,966.18
2018-05-06T08:07:20.638Z,966.18
2018-05-06T08:08:01.178Z,966.21
2018-05-06T08:08:41.721Z,966.21
2018-05-06T08:09:22.272Z,966.19
2018-05-06T08:10:02.816Z,966.18
2018-05-06T08:10:43.379Z,966.14
2018-05-06T08:11:23.896Z,966.17
2018-05-06T08:12:04.438Z,966.18
2018-05-06T08:12:44.974Z,966.18
2018-05-06T08:13:25.513Z,966.19
2018-05-06T08:14:06.053Z,966.21
2018-05-06T08:14:46.588Z,966.19
2018-05-06T08:15:27.133Z,966.17
2018-05-06T08:16:07.681Z,966.16
2018-05-06T08:16:48.227Z,966.15
2018-05-06T08:17:28.770Z,966.17
2018-05-06T08:18:09.303Z,966.21
2018-05-06T08:18:49.829Z,966.19
2018-05-06T08:19:30.368Z,966.18
2018-05-06T08:20:10.911Z,966.18
2018-05-06T08:20:51.469Z,966.21
2018-05-06T08:21:32.012Z,966.2
2018-05-06T08:22:12.545Z,966.25
2018-05-06T08:22:53.089Z,966.17
2018-05-06T08:23:33.635Z,966.23
2018-05-06T08:24:14.180Z,966.24
2018-05-06T08:24:54.726Z,966.22
2018-05-06T08:25:35.277Z,966.21
2018-05-06T08:26:15.816Z,966.21
2018-05-06T08:26:56.357Z,966.23
2018-05-06T08:27:36.895Z,966.2
2018-05-06T08:28:17.438Z,966.23
2018-05-06T08:28:57.980Z,966.18
2018-05-06T08:29:38.523Z,966.19